Latest Weather Observations for Witchcliffe

IDW60801

Issued at 2:32 am WST Monday 4 May 2015 (issued every 30 minutes, with the page automatically refreshed every 10 minutes)

About weather observations | Map of weather stations | Latest weather observations for WA | Other Formats
Station Details ID: 009746 Name: WITCHCLIFFE Lat: -34.03 Lon: 115.10 Height: 80.0 m
Data from the previous 72 hours. | See also: Recent months at Witchcliffe
Date/Time
WST
Temp
°C
App
Temp
°C
Dew
Point
Rel
Hum
%
Delta-T
°C
Wind Press
QNH
hPa
Press
MSL
hPa
Rain
since 9 am
mm
Dir
 
Spd
km/h
Gust
km/h
Spd
kts
Gust
kts
04/02:30am 10.7 5.5 3.7 62 3.1 SW 20 37 11 20 1015.4 1015.3 7.8
04/02:00am 9.5 3.5 5.5 76 1.8 SSW 26 43 14 23 1015.3 1015.2 7.8
04/01:40am 9.5 3.1 5.3 75 1.9 SSW 28 57 15 31 1015.2 1015.1 7.8
04/01:30am 11.1 5.6 3.9 61 3.2 SW 22 41 12 22 1014.6 1014.5 7.0
04/01:00am 9.9 5.4 4.1 67 2.6 SSW 17 28 9 15 1014.4 1014.3 7.0
04/12:37am 9.6 3.2 5.4 75 1.9 SW 28 50 15 27 1014.4 1014.3 6.8
04/12:34am 9.7 4.1 5.3 74 2.0 SW 24 50 13 27 1014.2 1014.1 6.8
04/12:30am 9.7 5.3 4.9 72 2.2 SW 17 28 9 15 1014.1 1014.0 6.2
04/12:02am 8.6 1.2 5.0 78 1.6 SW 33 61 18 33 1014.0 1013.9 6.2
04/12:00am 8.5 0.4 5.1 79 1.5 SW 37 61 20 33 1014.4 1014.3 6.2
 
Date/Time
WST
Temp
°C
App
Temp
°C
Dew
Point
Rel
Hum
%
Delta-T
°C
Wind Press
QNH
hPa
Press
MSL
hPa
Rain
since 9 am
mm
Dir
 
Spd
km/h
Gust
km/h
Spd
kts
Gust
kts
03/11:44pm 10.0 3.6 5.2 72 2.2 SW 28 69 15 37 1013.9 1013.8 5.6
03/11:30pm 10.1 4.3 6.1 76 1.9 SW 26 44 14 24 1013.4 1013.3 5.4
03/11:00pm 10.9 4.0 4.6 65 2.9 SW 30 48 16 26 1013.0 1012.9 5.0
03/10:59pm 11.4 4.5 4.6 63 3.1 SW 30 48 16 26 1013.0 1012.9 5.0
03/10:30pm 11.2 6.4 5.7 69 2.6 SSW 20 33 11 18 1012.6 1012.5 5.0
03/10:00pm 10.9 5.7 5.7 70 2.4 SW 22 39 12 21 1012.4 1012.3 4.8
03/09:30pm 10.2 5.3 6.9 80 1.6 SW 22 39 12 21 1012.4 1012.3 4.8
03/09:05pm 10.6 4.2 5.4 70 2.4 WSW 28 63 15 34 1011.8 1011.7 4.6
03/09:00pm 10.9 5.6 5.0 67 2.7 WSW 22 41 12 22 1011.2 1011.1 4.6
03/08:30pm 11.6 5.3 5.5 66 2.8 WSW 28 52 15 28 1011.2 1011.1 4.4
03/08:00pm 12.2 4.9 7.3 72 2.4 WSW 35 70 19 38 1010.4 1010.3 4.0
03/07:59pm 12.6 5.7 7.1 69 2.7 WSW 33 70 18 38 1010.5 1010.4 4.0
03/07:30pm 12.7 5.9 7.6 71 2.5 WSW 33 52 18 28 1010.2 1010.1 4.0
03/07:00pm 12.8 7.3 9.1 78 1.9 WSW 28 50 15 27 1009.7 1009.6 4.0
03/06:32pm 13.5 7.7 7.9 69 2.8 WSW 28 59 15 32 1009.4 1009.3 3.0
03/06:30pm 14.3 9.2 7.8 65 3.2 WSW 24 41 13 22 1009.0 1008.9 2.4
03/06:00pm 14.2 8.3 9.2 72 2.6 WSW 30 52 16 28 1009.1 1009.0 2.4
03/05:42pm 14.8 9.3 9.2 69 2.9 WSW 28 50 15 27 1008.7 1008.6 2.4
03/05:30pm 14.7 10.2 10.1 74 2.4 WSW 24 41 13 22 1008.5 1008.4 2.4
03/05:00pm 15.3 10.0 9.7 69 2.9 W 28 50 15 27 1008.7 1008.6 2.4
03/04:59pm 15.8 10.5 9.9 68 3.1 W 28 50 15 27 1008.5 1008.4 2.4
03/04:30pm 15.5 11.1 10.5 72 2.6 W 24 43 13 23 1008.6 1008.5 2.4
03/04:00pm 14.6 9.5 10.6 77 2.1 W 28 59 15 32 1008.8 1008.7 2.4
03/03:59pm 14.7 9.6 10.5 76 2.2 W 28 59 15 32 1008.8 1008.7 2.2
03/03:30pm 16.8 11.6 9.0 60 4.0 W 26 54 14 29 1008.6 1008.5 1.4
03/03:14pm 17.3 11.8 9.0 58 4.3 W 28 46 15 25 1008.6 1008.5 1.4
03/03:00pm 17.8 13.0 8.9 56 4.6 W 24 35 13 19 1008.7 1008.6 1.4
03/02:34pm 17.1 11.3 9.3 60 4.1 W 30 57 16 31 1008.6 1008.5 1.4
03/02:30pm 17.3 12.6 10.7 65 3.5 W 26 43 14 23 1008.6 1008.5 1.4
03/02:00pm 16.0 12.7 12.9 82 1.7 W 22 35 12 19 1008.9 1008.8 1.4
03/01:30pm 16.7 13.8 12.8 78 2.2 W 20 35 11 19 1009.0 1008.9 1.2
03/01:00pm 15.6 13.1 14.1 91 0.9 WSW 20 33 11 18 1009.2 1009.1 1.2
03/12:30pm 18.2 14.9 11.7 66 3.6 WNW 20 30 11 16 1009.4 1009.3 0.0
03/12:00pm 18.0 14.8 11.3 65 3.7 W 19 28 10 15 1010.2 1010.1 0.0
03/11:30am 17.4 14.2 11.2 67 3.4 W 19 32 10 17 1010.6 1010.5 0.0
03/11:00am 18.1 15.1 12.1 68 3.3 W 19 32 10 17 1010.8 1010.7 0.0
03/10:30am 17.3 14.3 12.0 71 2.9 W 19 32 10 17 1011.2 1011.1 0.0
03/10:00am 17.8 15.4 12.5 71 3.0 WSW 17 24 9 13 1011.3 1011.2 0.0
03/09:30am 17.2 17.1 13.9 81 1.9 NW 7 17 4 9 1011.6 1011.5 0.0
03/09:00am 16.9 16.4 13.8 82 1.8 W 9 19 5 10 1011.8 1011.7 1.2
03/08:30am 14.9 13.4 14.1 95 0.5 WNW 15 32 8 17 1011.9 1011.8 1.2
03/08:00am 14.1 13.5 13.6 97 0.3 NW 9 19 5 10 1011.8 1011.7 1.2
03/07:00am 12.5 11.4 12.0 97 0.3 NNW 9 13 5 7 1011.8 1011.7 0.4
03/06:30am 11.9 10.1 11.0 94 0.5 NNW 11 15 6 8 1012.0 1011.9 0.2
03/06:00am 12.1 10.4 11.2 94 0.5 NNW 11 15 6 8 1012.1 1012.0 0.2
03/05:30am 10.9 9.2 10.0 94 0.5 NNW 9 13 5 7 1012.4 1012.3 0.2
03/05:00am 10.5 8.7 9.3 92 0.6 NNW 9 9 5 5 1012.5 1012.4 0.2
03/04:30am 10.8 9.2 10.2 96 0.3 NNW 9 11 5 6 1012.6 1012.5 0.2
03/04:00am 9.8 8.3 9.2 96 0.3 NNW 7 11 4 6 1012.8 1012.7 0.2
03/03:30am 8.8 7.1 7.7 93 0.5 NNW 6 11 3 6 1013.0 1012.9 0.2
03/03:00am 9.7 8.2 8.6 93 0.5 N 6 6 3 3 1013.1 1013.0 0.2
03/02:30am 10.1 8.8 9.3 95 0.4 NNW 6 7 3 4 1013.2 1013.1 0.2
03/02:00am 9.8 8.3 9.2 96 0.3 NNW 7 7 4 4 1013.6 1013.5 0.2
03/01:30am 9.6 8.1 9.0 96 0.3 NNW 7 11 4 6 1013.8 1013.7 0.2
03/01:00am 9.8 8.3 9.0 95 0.4 NNW 7 9 4 5 1013.9 1013.8 0.2
03/12:30am 10.8 9.6 10.2 96 0.3 N 7 9 4 5 1014.2 1014.1 0.2
03/12:00am 11.1 10.2 10.8 98 0.2 N 6 9 3 5 1014.4 1014.3 0.2
 
Date/Time
WST
Temp
°C
App
Temp
°C
Dew
Point
Rel
Hum
%
Delta-T
°C
Wind Press
QNH
hPa
Press
MSL
hPa
Rain
since 9 am
mm
Dir
 
Spd
km/h
Gust
km/h
Spd
kts
Gust
kts
02/11:30pm 11.1 11.4 10.9 99 0.1 CALM 0 7 0 4 1014.7 1014.6 0.2
02/11:00pm 9.5 9.3 9.2 98 0.1 CALM 0 0 0 0 1015.0 1014.9 0.2
02/10:30pm 9.1 8.7 8.3 95 0.4 CALM 0 0 0 0 1015.4 1015.3 0.2
02/10:00pm 9.6 9.3 8.8 95 0.4 CALM 0 0 0 0 1015.6 1015.5 0.2
02/09:30pm 9.4 9.1 8.5 94 0.4 CALM 0 0 0 0 1015.9 1015.9 0.2
02/09:00pm 9.6 9.3 8.7 94 0.4 CALM 0 0 0 0 1015.9 1015.9 0.2
02/08:30pm 9.5 9.1 8.1 91 0.7 CALM 0 0 0 0 1016.0 1016.0 0.2
02/08:00pm 9.8 9.4 8.2 90 0.8 CALM 0 0 0 0 1015.9 1015.9 0.2
02/07:30pm 10.6 10.4 8.9 89 0.8 CALM 0 0 0 0 1015.7 1015.6 0.2
02/07:00pm 10.2 9.6 7.3 82 1.4 CALM 0 0 0 0 1015.5 1015.4 0.2
02/06:30pm 11.2 10.6 7.5 78 1.8 CALM 0 0 0 0 1015.4 1015.3 0.2
02/06:00pm 12.4 11.8 7.3 71 2.5 CALM 0 0 0 0 1015.1 1015.0 0.2
02/05:30pm 14.6 14.2 8.3 66 3.2 CALM 0 7 0 4 1015.0 1014.9 0.2
02/05:00pm 15.7 13.9 8.0 60 3.9 SSW 7 11 4 6 1015.4 1015.3 0.2
02/04:30pm 16.5 14.2 7.4 55 4.6 SSW 9 15 5 8 1015.3 1015.2 0.2
02/04:00pm 17.5 15.2 7.3 51 5.1 SSW 9 17 5 9 1015.4 1015.3 0.2
02/03:30pm 17.3 14.9 7.1 51 5.1 S 9 17 5 9 1015.5 1015.4 0.2
02/03:00pm 17.1 14.8 9.0 59 4.2 SE 11 15 6 8 1015.6 1015.5 0.2
02/02:30pm 16.9 14.8 8.1 56 4.5 SE 9 11 5 6 1015.5 1015.4 0.2
02/02:00pm 17.2 14.7 8.1 55 4.6 S 11 20 6 11 1015.6 1015.5 0.2
02/01:30pm 17.8 16.3 8.6 55 4.8 S 6 13 3 7 1016.0 1016.0 0.2
02/01:00pm 17.0 14.0 7.6 54 4.7 SSE 13 17 7 9 1016.3 1016.3 0.2
02/12:30pm 17.2 15.3 6.7 50 5.2 ESE 6 11 3 6 1017.0 1017.0 0.2
02/12:00pm 16.9 14.4 6.7 51 5.0 S 9 13 5 7 1017.6 1017.6 0.2
02/11:30am 17.1 16.5 7.2 52 5.0 CALM 0 6 0 3 1018.0 1018.0 0.0
02/11:00am 16.4 15.3 6.8 53 4.7 NNE 2 7 1 4 1018.4 1018.4 0.0
02/10:30am 15.7 13.9 7.0 56 4.3 ENE 6 11 3 6 1018.8 1018.8 0.0
02/10:00am 14.8 14.1 7.1 60 3.8 CALM 0 0 0 0 1019.2 1019.2 0.0
02/09:30am 13.2 9.8 6.1 62 3.4 NNE 13 17 7 9 1019.4 1019.4 0.0
02/09:00am 12.8 10.6 6.4 65 3.0 NE 7 15 4 8 1019.7 1019.7 0.0
02/08:30am 11.8 9.1 5.7 66 2.8 NNE 9 15 5 8 1019.6 1019.6 0.0
02/08:00am 11.1 8.0 5.4 68 2.6 NNE 11 19 6 10 1019.4 1019.4 0.0
02/07:30am 10.8 8.4 5.1 68 2.6 NE 7 9 4 5 1019.4 1019.4 0.0
02/07:00am 10.1 8.7 5.3 72 2.2 NE 2 7 1 4 1019.6 1019.6 0.0
02/06:30am 10.4 8.5 5.0 69 2.5 NE 4 9 2 5 1019.4 1019.4 0.0
02/06:00am 10.4 8.3 5.6 72 2.2 NE 6 11 3 6 1019.5 1019.5 0.0
02/05:30am 9.5 8.2 7.6 88 0.9 NNE 4 9 2 5 1019.3 1019.3 0.0
02/05:00am 8.3 7.7 7.2 93 0.5 CALM 0 0 0 0 1019.3 1019.3 0.0
02/04:30am 7.3 6.5 6.7 96 0.3 CALM 0 0 0 0 1019.2 1019.2 0.0
02/04:00am 6.4 5.4 5.5 94 0.4 CALM 0 0 0 0 1019.4 1019.4 0.0
02/03:30am 5.1 3.7 3.8 91 0.5 CALM 0 0 0 0 1019.4 1019.4 0.0
02/03:00am 6.0 4.8 4.6 91 0.6 CALM 0 0 0 0 1019.7 1019.7 0.0
02/02:30am 5.9 4.6 4.2 89 0.7 CALM 0 0 0 0 1020.1 1020.0 0.0
02/02:00am 6.5 5.3 4.7 88 0.8 CALM 0 0 0 0 1020.2 1020.1 0.0
02/01:30am 6.8 5.7 5.0 88 0.8 CALM 0 0 0 0 1020.2 1020.1 0.0
02/01:00am 7.3 6.3 5.4 88 0.8 CALM 0 0 0 0 1020.3 1020.2 0.0
02/12:30am 7.8 6.9 6.1 89 0.8 CALM 0 0 0 0 1020.5 1020.4 0.0
02/12:00am 7.1 6.0 5.3 88 0.8 CALM 0 0 0 0 1020.6 1020.5 0.0
 
Date/Time
WST
Temp
°C
App
Temp
°C
Dew
Point
Rel
Hum
%
Delta-T
°C
Wind Press
QNH
hPa
Press
MSL
hPa
Rain
since 9 am
mm
Dir
 
Spd
km/h
Gust
km/h
Spd
kts
Gust
kts
01/11:30pm 7.2 6.2 5.7 90 0.7 CALM 0 0 0 0 1020.9 1020.8 0.0
01/11:00pm 7.3 6.3 5.8 90 0.7 CALM 0 0 0 0 1021.1 1021.0 0.0
01/10:30pm 7.4 6.4 5.4 87 0.9 CALM 0 0 0 0 1021.3 1021.2 0.0
01/10:00pm 7.7 6.6 5.3 85 1.1 CALM 0 0 0 0 1021.6 1021.5 0.0
01/09:30pm 8.0 6.9 5.3 83 1.2 CALM 0 0 0 0 1021.9 1021.8 0.0
01/09:00pm 9.0 8.0 5.7 80 1.5 CALM 0 0 0 0 1022.1 1022.0 0.0
01/08:30pm 10.1 9.3 6.3 77 1.8 CALM 0 6 0 3 1021.8 1021.7 0.0
01/08:00pm 12.3 8.3 6.8 69 2.6 S 17 22 9 12 1021.5 1021.4 0.0
01/07:30pm 11.4 10.9 7.9 79 1.7 CALM 0 0 0 0 1021.6 1021.5 0.0
01/07:00pm 11.6 11.1 7.9 78 1.8 CALM 0 0 0 0 1021.5 1021.4 0.0
01/06:30pm 11.5 10.7 6.6 72 2.3 CALM 0 0 0 0 1021.2 1021.1 0.0
01/06:00pm 12.5 11.6 6.1 65 3.0 CALM 0 6 0 3 1020.9 1020.8 0.0
01/05:30pm 13.1 10.5 6.2 63 3.3 SSE 9 13 5 7 1020.5 1020.4 0.0
01/05:00pm 14.1 10.4 6.5 60 3.7 SSE 15 20 8 11 1020.5 1020.4 0.0
01/04:30pm 14.7 11.4 6.3 57 4.1 SE 13 20 7 11 1020.4 1020.3 0.0
01/04:00pm 15.4 11.3 6.1 54 4.5 SE 17 26 9 14 1019.9 1019.9 0.0
01/03:30pm 15.6 11.5 6.1 53 4.6 SSE 17 22 9 12 1020.1 1020.0 0.0
01/03:00pm 16.0 11.5 6.2 52 4.8 SE 19 30 10 16 1019.9 1019.9 0.0
01/02:30pm 15.6 10.2 6.3 54 4.5 SSE 24 37 13 20 1019.7 1019.7 0.0
01/02:00pm 16.2 11.8 7.4 56 4.4 SSE 20 30 11 16 1020.2 1020.1 0.0
01/01:30pm 16.8 12.8 8.2 57 4.4 SSE 19 28 10 15 1020.5 1020.4 0.0
01/01:00pm 17.3 13.2 8.7 57 4.4 S 20 32 11 17 1020.7 1020.6 0.0
01/12:30pm 16.5 12.6 7.2 54 4.6 SSE 17 28 9 15 1021.0 1020.9 0.0
01/12:00pm 17.3 13.5 9.0 58 4.3 S 19 28 10 15 1021.1 1021.0 0.0
01/11:30am 16.0 12.6 7.5 57 4.3 SSE 15 22 8 12 1021.4 1021.3 0.0
01/11:00am 16.9 13.0 7.3 53 4.8 SSE 17 24 9 13 1021.3 1021.2 0.0
01/10:30am 17.1 13.7 7.5 53 4.8 S 15 22 8 12 1021.5 1021.4 0.0
01/10:00am 16.8 13.8 7.7 55 4.6 SSE 13 20 7 11 1021.2 1021.1 0.0
01/09:30am 15.7 13.8 7.7 59 4.0 SSE 7 15 4 8 1021.2 1021.1 0.0
01/09:00am 14.8 12.3 8.3 65 3.3 SSE 11 20 6 11 1021.1 1021.0 0.6
01/08:30am 15.1 12.2 8.1 63 3.5 S 13 19 7 10 1020.9 1020.8 0.6
01/08:00am 13.9 11.2 7.2 64 3.3 SSE 11 15 6 8 1020.5 1020.4 0.6
01/07:30am 12.6 9.6 6.0 64 3.1 S 11 17 6 9 1020.3 1020.1 0.6
01/07:00am 12.0 9.2 5.2 63 3.1 S 9 11 5 6 1019.8 1019.7 0.6
01/06:30am 12.0 10.6 5.4 64 3.1 S 2 9 1 5 1019.6 1019.5 0.6
01/06:00am 12.6 10.9 5.8 63 3.2 SSW 4 7 2 4 1019.2 1019.1 0.6
01/05:30am 13.8 11.2 5.9 59 3.8 S 9 15 5 8 1018.8 1018.7 0.6
01/05:00am 14.1 11.6 6.7 61 3.6 S 9 15 5 8 1018.5 1018.4 0.6
01/04:30am 14.0 10.8 5.1 55 4.2 SSW 11 15 6 8 1018.1 1018.0 0.6
01/04:00am 14.0 11.3 5.6 57 4.0 SSW 9 17 5 9 1017.9 1017.8 0.6
01/03:30am 13.3 10.2 5.5 59 3.7 SW 11 19 6 10 1017.7 1017.6 0.6
01/03:00am 13.8 10.8 6.2 60 3.6 SSW 11 17 6 9 1017.8 1017.7 0.6

Other Formats:

Comma delimited format used in spreadsheet applications
http://www.bom.gov.au/fwo/IDW60801/IDW60801.95641.axf

JavaScript Object Notation format (JSON) in row-major order
http://www.bom.gov.au/fwo/IDW60801/IDW60801.95641.json